Avent, Mississippi
Current Conditions -  °F | °C
As of 4:53 PM on Wednesday 26 Nov 2014 (Local Time) from KHBG Reporting Station
Clear Clear  
Wind Chill: 61°   Ceiling: Unl
Heat Index: 61°   Visibility: 10mi
Dew Point: 36°   Wind: 10mph
Humidity: 39%   Direction: 210°SSW
Pressure: 30.14"   Gusts: NA
Location:  31.0532°N, 88.8084°W
Report Text: KHBG 262253Z AUTO 21009KT 10SM CLR 16/02 A3014 RMK AO2 SLP207 T01610022
Loading
Personal Weather Stations






























Interactive Weather Map New forecast layout! Learn more

10-Day Weather Forecast

Advertisements
Track Severe Weather on mobile